sensor_id;sensor_type;location;lat;lon;timestamp;temperature;humidity
52209;DHT22;38507;53.132;6.394;2023-07-08T00:00:21;17.40;99.90
52209;DHT22;38507;53.132;6.394;2023-07-08T00:02:47;17.40;99.90
52209;DHT22;38507;53.132;6.394;2023-07-08T00:05:16;17.40;99.90
52209;DHT22;38507;53.132;6.394;2023-07-08T00:07:42;17.40;99.90
52209;DHT22;38507;53.132;6.394;2023-07-08T00:10:14;17.40;99.90
52209;DHT22;38507;53.132;6.394;2023-07-08T00:12:40;17.30;99.90
52209;DHT22;38507;53.132;6.394;2023-07-08T00:15:08;17.40;99.90
52209;DHT22;38507;53.132;6.394;2023-07-08T00:17:34;17.30;99.90
52209;DHT22;38507;53.132;6.394;2023-07-08T00:20:00;17.30;99.90
52209;DHT22;38507;53.132;6.394;2023-07-08T00:22:25;17.30;99.90
52209;DHT22;38507;53.132;6.394;2023-07-08T00:24:51;17.30;99.90
52209;DHT22;38507;53.132;6.394;2023-07-08T00:27:17;17.30;99.90
52209;DHT22;38507;53.132;6.394;2023-07-08T00:29:43;17.20;99.90
52209;DHT22;38507;53.132;6.394;2023-07-08T00:32:14;17.10;99.90
52209;DHT22;38507;53.132;6.394;2023-07-08T00:34:40;17.20;99.90
52209;DHT22;38507;53.132;6.394;2023-07-08T00:37:13;17.20;99.90
52209;DHT22;38507;53.132;6.394;2023-07-08T00:39:39;17.10;99.90
52209;DHT22;38507;53.132;6.394;2023-07-08T00:42:19;17.10;99.90
52209;DHT22;38507;53.132;6.394;2023-07-08T00:44:48;17.20;99.90
52209;DHT22;38507;53.132;6.394;2023-07-08T00:47:14;17.20;99.90
52209;DHT22;38507;53.132;6.394;2023-07-08T00:49:48;17.10;99.90
52209;DHT22;38507;53.132;6.394;2023-07-08T00:54:50;17.10;99.90
52209;DHT22;38507;53.132;6.394;2023-07-08T00:57:16;17.10;99.90
52209;DHT22;38507;53.132;6.394;2023-07-08T00:59:47;17.10;99.90
52209;DHT22;38507;53.132;6.394;2023-07-08T01:02:18;17.10;99.90
52209;DHT22;38507;53.132;6.394;2023-07-08T01:04:54;17.10;99.90
52209;DHT22;38507;53.132;6.394;2023-07-08T01:07:22;17.10;99.90
52209;DHT22;38507;53.132;6.394;2023-07-08T01:09:57;17.10;99.90
52209;DHT22;38507;53.132;6.394;2023-07-08T01:12:30;17.00;99.90
52209;DHT22;38507;53.132;6.394;2023-07-08T01:14:58;17.10;99.90
52209;DHT22;38507;53.132;6.394;2023-07-08T01:17:26;17.10;99.90
52209;DHT22;38507;53.132;6.394;2023-07-08T01:19:54;17.00;99.90
52209;DHT22;38507;53.132;6.394;2023-07-08T01:22:20;17.00;99.90
52209;DHT22;38507;53.132;6.394;2023-07-08T01:24:46;16.90;99.90
52209;DHT22;38507;53.132;6.394;2023-07-08T01:27:14;17.00;99.90
52209;DHT22;38507;53.132;6.394;2023-07-08T01:29:40;17.00;99.90
52209;DHT22;38507;53.132;6.394;2023-07-08T01:32:06;17.00;99.90
52209;DHT22;38507;53.132;6.394;2023-07-08T01:34:43;17.00;99.90
52209;DHT22;38507;53.132;6.394;2023-07-08T01:37:18;17.00;99.90
52209;DHT22;38507;53.132;6.394;2023-07-08T01:39:44;17.00;99.90
52209;DHT22;38507;53.132;6.394;2023-07-08T01:42:10;16.90;99.90
52209;DHT22;38507;53.132;6.394;2023-07-08T01:44:36;17.00;99.90
52209;DHT22;38507;53.132;6.394;2023-07-08T01:47:15;16.90;99.90
52209;DHT22;38507;53.132;6.394;2023-07-08T01:49:43;16.90;99.90
52209;DHT22;38507;53.132;6.394;2023-07-08T01:52:10;16.90;99.90
52209;DHT22;38507;53.132;6.394;2023-07-08T01:54:37;16.90;99.90
52209;DHT22;38507;53.132;6.394;2023-07-08T01:57:03;16.90;99.90
52209;DHT22;38507;53.132;6.394;2023-07-08T01:59:28;16.90;99.90
52209;DHT22;38507;53.132;6.394;2023-07-08T02:01:54;16.80;99.90
52209;DHT22;38507;53.132;6.394;2023-07-08T02:04:21;16.80;99.90
52209;DHT22;38507;53.132;6.394;2023-07-08T02:06:58;16.80;99.90
52209;DHT22;38507;53.132;6.394;2023-07-08T02:09:24;16.80;99.90
52209;DHT22;38507;53.132;6.394;2023-07-08T02:11:53;16.80;99.90
52209;DHT22;38507;53.132;6.394;2023-07-08T02:14:19;16.80;99.90
52209;DHT22;38507;53.132;6.394;2023-07-08T02:16:45;16.70;99.90
52209;DHT22;38507;53.132;6.394;2023-07-08T02:19:11;16.70;99.90
52209;DHT22;38507;53.132;6.394;2023-07-08T02:21:37;16.70;99.90
52209;DHT22;38507;53.132;6.394;2023-07-08T02:24:03;16.70;99.90
52209;DHT22;38507;53.132;6.394;2023-07-08T02:26:29;16.60;99.90
52209;DHT22;38507;53.132;6.394;2023-07-08T02:28:58;16.50;99.90
52209;DHT22;38507;53.132;6.394;2023-07-08T02:31:24;16.60;99.90
52209;DHT22;38507;53.132;6.394;2023-07-08T02:33:51;16.50;99.90
52209;DHT22;38507;53.132;6.394;2023-07-08T02:36:17;16.50;99.90
52209;DHT22;38507;53.132;6.394;2023-07-08T02:38:43;16.40;99.90
52209;DHT22;38507;53.132;6.394;2023-07-08T02:41:08;16.40;99.90
52209;DHT22;38507;53.132;6.394;2023-07-08T02:43:34;16.40;99.90
52209;DHT22;38507;53.132;6.394;2023-07-08T02:46:00;16.30;99.90
52209;DHT22;38507;53.132;6.394;2023-07-08T02:48:25;16.30;99.90
52209;DHT22;38507;53.132;6.394;2023-07-08T02:50:51;16.30;99.90
52209;DHT22;38507;53.132;6.394;2023-07-08T02:53:23;16.30;99.90
52209;DHT22;38507;53.132;6.394;2023-07-08T02:55:49;16.20;99.90
52209;DHT22;38507;53.132;6.394;2023-07-08T02:58:14;16.20;99.90
52209;DHT22;38507;53.132;6.394;2023-07-08T03:00:40;16.10;99.90
52209;DHT22;38507;53.132;6.394;2023-07-08T03:03:05;16.20;99.90
52209;DHT22;38507;53.132;6.394;2023-07-08T03:05:31;16.10;99.90
52209;DHT22;38507;53.132;6.394;2023-07-08T03:07:57;16.10;99.90
52209;DHT22;38507;53.132;6.394;2023-07-08T03:10:22;16.10;99.90
52209;DHT22;38507;53.132;6.394;2023-07-08T03:12:48;16.10;99.90
52209;DHT22;38507;53.132;6.394;2023-07-08T03:15:13;16.00;99.90
52209;DHT22;38507;53.132;6.394;2023-07-08T03:17:39;16.00;99.90
52209;DHT22;38507;53.132;6.394;2023-07-08T03:20:06;16.00;99.90
52209;DHT22;38507;53.132;6.394;2023-07-08T03:22:32;15.90;99.90
52209;DHT22;38507;53.132;6.394;2023-07-08T03:24:58;15.90;99.90
52209;DHT22;38507;53.132;6.394;2023-07-08T03:27:24;15.90;99.90
52209;DHT22;38507;53.132;6.394;2023-07-08T03:29:49;15.90;99.90
52209;DHT22;38507;53.132;6.394;2023-07-08T03:32:15;15.80;99.90
52209;DHT22;38507;53.132;6.394;2023-07-08T03:34:40;15.80;99.90
52209;DHT22;38507;53.132;6.394;2023-07-08T03:37:08;15.80;99.90
52209;DHT22;38507;53.132;6.394;2023-07-08T03:39:34;15.80;99.90
52209;DHT22;38507;53.132;6.394;2023-07-08T03:42:00;15.80;99.90
52209;DHT22;38507;53.132;6.394;2023-07-08T03:44:26;15.70;99.90
52209;DHT22;38507;53.132;6.394;2023-07-08T03:46:51;15.70;99.90
52209;DHT22;38507;53.132;6.394;2023-07-08T03:49:18;15.70;99.90
52209;DHT22;38507;53.132;6.394;2023-07-08T03:51:47;15.70;99.90
52209;DHT22;38507;53.132;6.394;2023-07-08T03:54:14;15.70;99.90
52209;DHT22;38507;53.132;6.394;2023-07-08T03:56:40;15.70;99.90
52209;DHT22;38507;53.132;6.394;2023-07-08T03:59:06;15.60;99.90
52209;DHT22;38507;53.132;6.394;2023-07-08T04:01:32;15.70;99.90
52209;DHT22;38507;53.132;6.394;2023-07-08T04:03:59;15.60;99.90
52209;DHT22;38507;53.132;6.394;2023-07-08T04:06:25;15.60;99.90
52209;DHT22;38507;53.132;6.394;2023-07-08T04:08:51;15.60;99.90
52209;DHT22;38507;53.132;6.394;2023-07-08T04:11:19;15.60;99.90
52209;DHT22;38507;53.132;6.394;2023-07-08T04:13:45;15.70;99.90
52209;DHT22;38507;53.132;6.394;2023-07-08T04:18:42;15.70;99.90
52209;DHT22;38507;53.132;6.394;2023-07-08T04:21:07;15.70;99.90
52209;DHT22;38507;53.132;6.394;2023-07-08T04:23:33;15.70;99.90
52209;DHT22;38507;53.132;6.394;2023-07-08T04:25:59;15.80;99.90
52209;DHT22;38507;53.132;6.394;2023-07-08T04:28:25;15.80;99.90
52209;DHT22;38507;53.132;6.394;2023-07-08T04:30:50;15.80;99.90
52209;DHT22;38507;53.132;6.394;2023-07-08T04:33:16;15.90;99.90
52209;DHT22;38507;53.132;6.394;2023-07-08T04:35:43;15.90;99.90
52209;DHT22;38507;53.132;6.394;2023-07-08T04:38:19;15.90;99.90
52209;DHT22;38507;53.132;6.394;2023-07-08T04:40:47;15.90;99.90
52209;DHT22;38507;53.132;6.394;2023-07-08T04:43:13;16.00;99.90
52209;DHT22;38507;53.132;6.394;2023-07-08T04:45:41;16.00;99.90
52209;DHT22;38507;53.132;6.394;2023-07-08T04:48:12;16.00;99.90
52209;DHT22;38507;53.132;6.394;2023-07-08T04:50:43;16.10;99.90
52209;DHT22;38507;53.132;6.394;2023-07-08T04:53:10;16.20;99.90
52209;DHT22;38507;53.132;6.394;2023-07-08T04:55:48;16.20;99.90
52209;DHT22;38507;53.132;6.394;2023-07-08T04:58:15;16.20;99.90
52209;DHT22;38507;53.132;6.394;2023-07-08T05:00:41;16.40;99.90
52209;DHT22;38507;53.132;6.394;2023-07-08T05:03:06;16.40;99.90
52209;DHT22;38507;53.132;6.394;2023-07-08T05:05:32;16.50;99.90
52209;DHT22;38507;53.132;6.394;2023-07-08T05:07:57;16.60;99.90
52209;DHT22;38507;53.132;6.394;2023-07-08T05:10:23;16.60;99.90
52209;DHT22;38507;53.132;6.394;2023-07-08T05:12:49;16.70;99.90
52209;DHT22;38507;53.132;6.394;2023-07-08T05:15:15;16.80;99.90
52209;DHT22;38507;53.132;6.394;2023-07-08T05:17:42;16.80;99.90
52209;DHT22;38507;53.132;6.394;2023-07-08T05:20:09;16.90;99.90
52209;DHT22;38507;53.132;6.394;2023-07-08T05:22:36;17.00;99.90
52209;DHT22;38507;53.132;6.394;2023-07-08T05:25:02;17.00;99.90
52209;DHT22;38507;53.132;6.394;2023-07-08T05:27:28;17.10;99.90
52209;DHT22;38507;53.132;6.394;2023-07-08T05:29:53;17.20;99.90
52209;DHT22;38507;53.132;6.394;2023-07-08T05:32:19;17.30;99.90
52209;DHT22;38507;53.132;6.394;2023-07-08T05:34:45;17.40;99.90
52209;DHT22;38507;53.132;6.394;2023-07-08T05:37:11;17.50;99.90
52209;DHT22;38507;53.132;6.394;2023-07-08T05:39:37;17.60;99.90
52209;DHT22;38507;53.132;6.394;2023-07-08T05:42:03;17.60;99.90
52209;DHT22;38507;53.132;6.394;2023-07-08T05:44:29;17.80;99.90
52209;DHT22;38507;53.132;6.394;2023-07-08T05:46:55;17.90;99.90
52209;DHT22;38507;53.132;6.394;2023-07-08T05:49:20;17.90;99.90
52209;DHT22;38507;53.132;6.394;2023-07-08T05:51:47;18.10;99.90
52209;DHT22;38507;53.132;6.394;2023-07-08T05:54:13;18.20;99.90
52209;DHT22;38507;53.132;6.394;2023-07-08T05:56:39;18.20;99.90
52209;DHT22;38507;53.132;6.394;2023-07-08T05:59:05;18.30;99.90
52209;DHT22;38507;53.132;6.394;2023-07-08T06:01:31;18.50;99.90
52209;DHT22;38507;53.132;6.394;2023-07-08T06:03:57;18.60;99.90
52209;DHT22;38507;53.132;6.394;2023-07-08T06:06:27;18.70;99.90
52209;DHT22;38507;53.132;6.394;2023-07-08T06:08:53;18.80;99.90
52209;DHT22;38507;53.132;6.394;2023-07-08T06:11:19;18.80;99.90
52209;DHT22;38507;53.132;6.394;2023-07-08T06:13:45;19.00;99.90
52209;DHT22;38507;53.132;6.394;2023-07-08T06:16:11;19.10;99.90
52209;DHT22;38507;53.132;6.394;2023-07-08T06:18:37;19.20;99.90
52209;DHT22;38507;53.132;6.394;2023-07-08T06:21:03;19.40;99.90
52209;DHT22;38507;53.132;6.394;2023-07-08T06:23:29;19.50;99.90
52209;DHT22;38507;53.132;6.394;2023-07-08T06:25:55;19.60;99.90
52209;DHT22;38507;53.132;6.394;2023-07-08T06:28:21;19.70;99.90
52209;DHT22;38507;53.132;6.394;2023-07-08T06:30:47;19.80;99.90
52209;DHT22;38507;53.132;6.394;2023-07-08T06:33:13;19.90;99.90
52209;DHT22;38507;53.132;6.394;2023-07-08T06:35:39;20.10;99.90
52209;DHT22;38507;53.132;6.394;2023-07-08T06:38:06;20.20;99.90
52209;DHT22;38507;53.132;6.394;2023-07-08T06:40:32;20.40;99.90
52209;DHT22;38507;53.132;6.394;2023-07-08T06:42:58;20.60;99.90
52209;DHT22;38507;53.132;6.394;2023-07-08T06:45:24;20.80;99.90
52209;DHT22;38507;53.132;6.394;2023-07-08T06:47:49;21.10;99.90
52209;DHT22;38507;53.132;6.394;2023-07-08T06:50:15;21.30;99.90
52209;DHT22;38507;53.132;6.394;2023-07-08T06:52:41;21.50;99.90
52209;DHT22;38507;53.132;6.394;2023-07-08T06:55:09;21.60;99.90
52209;DHT22;38507;53.132;6.394;2023-07-08T06:57:36;21.90;99.90
52209;DHT22;38507;53.132;6.394;2023-07-08T07:00:07;22.10;99.90
52209;DHT22;38507;53.132;6.394;2023-07-08T07:02:33;22.30;99.90
52209;DHT22;38507;53.132;6.394;2023-07-08T07:05:00;22.60;99.90
52209;DHT22;38507;53.132;6.394;2023-07-08T07:07:25;22.80;99.90
52209;DHT22;38507;53.132;6.394;2023-07-08T07:09:51;23.00;99.90
52209;DHT22;38507;53.132;6.394;2023-07-08T07:12:17;23.20;99.90
52209;DHT22;38507;53.132;6.394;2023-07-08T07:14:43;23.40;99.90
52209;DHT22;38507;53.132;6.394;2023-07-08T07:17:09;23.60;99.90
52209;DHT22;38507;53.132;6.394;2023-07-08T07:19:34;23.90;99.90
52209;DHT22;38507;53.132;6.394;2023-07-08T07:22:00;24.10;99.90
52209;DHT22;38507;53.132;6.394;2023-07-08T07:24:26;24.20;99.90
52209;DHT22;38507;53.132;6.394;2023-07-08T07:26:51;24.30;99.90
52209;DHT22;38507;53.132;6.394;2023-07-08T07:29:18;24.50;99.90
52209;DHT22;38507;53.132;6.394;2023-07-08T07:31:44;24.70;99.90
52209;DHT22;38507;53.132;6.394;2023-07-08T07:34:12;24.90;99.90
52209;DHT22;38507;53.132;6.394;2023-07-08T07:36:37;25.10;99.90
52209;DHT22;38507;53.132;6.394;2023-07-08T07:39:03;25.20;99.80
52209;DHT22;38507;53.132;6.394;2023-07-08T07:41:29;25.40;99.30
52209;DHT22;38507;53.132;6.394;2023-07-08T07:43:54;25.40;99.10
52209;DHT22;38507;53.132;6.394;2023-07-08T07:46:20;25.60;99.00
52209;DHT22;38507;53.132;6.394;2023-07-08T07:48:46;25.80;99.00
52209;DHT22;38507;53.132;6.394;2023-07-08T07:51:12;26.10;98.30
52209;DHT22;38507;53.132;6.394;2023-07-08T07:53:38;26.20;98.70
52209;DHT22;38507;53.132;6.394;2023-07-08T07:56:04;26.20;97.00
52209;DHT22;38507;53.132;6.394;2023-07-08T07:58:30;26.20;97.50
52209;DHT22;38507;53.132;6.394;2023-07-08T08:00:57;26.30;97.60
52209;DHT22;38507;53.132;6.394;2023-07-08T08:03:23;26.40;97.80
52209;DHT22;38507;53.132;6.394;2023-07-08T08:05:49;26.50;97.50
52209;DHT22;38507;53.132;6.394;2023-07-08T08:08:15;26.60;96.80
52209;DHT22;38507;53.132;6.394;2023-07-08T08:10:42;26.50;96.50
52209;DHT22;38507;53.132;6.394;2023-07-08T08:13:08;26.60;97.00
52209;DHT22;38507;53.132;6.394;2023-07-08T08:15:34;26.60;96.70
52209;DHT22;38507;53.132;6.394;2023-07-08T08:18:00;26.70;96.80
52209;DHT22;38507;53.132;6.394;2023-07-08T08:20:26;26.70;96.70
52209;DHT22;38507;53.132;6.394;2023-07-08T08:22:51;26.90;96.60
52209;DHT22;38507;53.132;6.394;2023-07-08T08:25:19;27.00;96.20
52209;DHT22;38507;53.132;6.394;2023-07-08T08:27:45;27.00;95.90
52209;DHT22;38507;53.132;6.394;2023-07-08T08:30:11;27.00;96.30
52209;DHT22;38507;53.132;6.394;2023-07-08T08:32:37;27.30;96.30
52209;DHT22;38507;53.132;6.394;2023-07-08T08:35:04;27.20;96.10
52209;DHT22;38507;53.132;6.394;2023-07-08T08:37:29;27.30;96.00
52209;DHT22;38507;53.132;6.394;2023-07-08T08:39:55;27.60;96.10
52209;DHT22;38507;53.132;6.394;2023-07-08T08:42:39;27.50;96.00
52209;DHT22;38507;53.132;6.394;2023-07-08T08:45:07;27.70;95.00
52209;DHT22;38507;53.132;6.394;2023-07-08T08:47:45;27.90;95.50
52209;DHT22;38507;53.132;6.394;2023-07-08T08:53:05;28.00;95.00
52209;DHT22;38507;53.132;6.394;2023-07-08T08:55:34;28.20;95.20
52209;DHT22;38507;53.132;6.394;2023-07-08T09:00:59;28.20;94.20
52209;DHT22;38507;53.132;6.394;2023-07-08T09:03:51;28.20;93.90
52209;DHT22;38507;53.132;6.394;2023-07-08T09:06:24;28.30;93.60
52209;DHT22;38507;53.132;6.394;2023-07-08T09:08:51;28.30;93.30
52209;DHT22;38507;53.132;6.394;2023-07-08T09:13:52;28.50;94.30
52209;DHT22;38507;53.132;6.394;2023-07-08T09:16:39;28.50;94.40
52209;DHT22;38507;53.132;6.394;2023-07-08T09:19:12;28.70;93.90
52209;DHT22;38507;53.132;6.394;2023-07-08T09:21:48;28.80;93.60
52209;DHT22;38507;53.132;6.394;2023-07-08T09:24:29;28.90;93.60
52209;DHT22;38507;53.132;6.394;2023-07-08T09:26:57;28.90;93.60
52209;DHT22;38507;53.132;6.394;2023-07-08T09:29:25;29.10;93.80
52209;DHT22;38507;53.132;6.394;2023-07-08T09:31:50;29.20;93.90
52209;DHT22;38507;53.132;6.394;2023-07-08T09:34:21;29.40;93.90
52209;DHT22;38507;53.132;6.394;2023-07-08T09:36:51;29.60;93.80
52209;DHT22;38507;53.132;6.394;2023-07-08T09:39:19;29.80;93.30
52209;DHT22;38507;53.132;6.394;2023-07-08T09:41:48;29.80;94.00
52209;DHT22;38507;53.132;6.394;2023-07-08T09:44:24;30.00;93.70
52209;DHT22;38507;53.132;6.394;2023-07-08T09:46:57;30.10;93.20
52209;DHT22;38507;53.132;6.394;2023-07-08T09:49:31;30.30;93.80
52209;DHT22;38507;53.132;6.394;2023-07-08T09:51:56;30.40;93.30
52209;DHT22;38507;53.132;6.394;2023-07-08T09:54:24;30.50;93.50
52209;DHT22;38507;53.132;6.394;2023-07-08T09:57:05;30.50;93.20
52209;DHT22;38507;53.132;6.394;2023-07-08T09:59:52;30.40;91.80
52209;DHT22;38507;53.132;6.394;2023-07-08T10:02:44;30.40;92.80
52209;DHT22;38507;53.132;6.394;2023-07-08T10:05:27;30.50;92.50
52209;DHT22;38507;53.132;6.394;2023-07-08T10:07:56;30.60;92.90
52209;DHT22;38507;53.132;6.394;2023-07-08T10:10:36;30.60;93.10
52209;DHT22;38507;53.132;6.394;2023-07-08T10:13:08;30.70;92.50
52209;DHT22;38507;53.132;6.394;2023-07-08T10:15:40;30.70;92.60
52209;DHT22;38507;53.132;6.394;2023-07-08T10:18:17;30.90;92.60
52209;DHT22;38507;53.132;6.394;2023-07-08T10:21:13;30.90;92.40
52209;DHT22;38507;53.132;6.394;2023-07-08T10:26:26;31.00;92.50
52209;DHT22;38507;53.132;6.394;2023-07-08T10:32:01;31.10;92.10
52209;DHT22;38507;53.132;6.394;2023-07-08T10:34:36;31.20;92.10
52209;DHT22;38507;53.132;6.394;2023-07-08T10:54:32;31.60;90.80
52209;DHT22;38507;53.132;6.394;2023-07-08T11:05:56;32.00;90.70
52209;DHT22;38507;53.132;6.394;2023-07-08T11:08:27;32.10;90.40
52209;DHT22;38507;53.132;6.394;2023-07-08T11:11:29;32.10;91.00
52209;DHT22;38507;53.132;6.394;2023-07-08T11:14:04;32.20;90.50
52209;DHT22;38507;53.132;6.394;2023-07-08T11:16:39;32.30;90.20
52209;DHT22;38507;53.132;6.394;2023-07-08T11:19:21;32.30;90.40
52209;DHT22;38507;53.132;6.394;2023-07-08T11:21:53;32.40;90.60
52209;DHT22;38507;53.132;6.394;2023-07-08T11:27:16;32.40;88.10
52209;DHT22;38507;53.132;6.394;2023-07-08T11:29:55;32.50;87.70
52209;DHT22;38507;53.132;6.394;2023-07-08T11:32:25;32.50;88.80
52209;DHT22;38507;53.132;6.394;2023-07-08T11:34:52;32.50;88.90
52209;DHT22;38507;53.132;6.394;2023-07-08T11:37:19;32.60;89.20
52209;DHT22;38507;53.132;6.394;2023-07-08T11:40:05;32.60;88.40
52209;DHT22;38507;53.132;6.394;2023-07-08T11:42:40;32.60;86.30
52209;DHT22;38507;53.132;6.394;2023-07-08T11:45:30;32.60;86.90
52209;DHT22;38507;53.132;6.394;2023-07-08T11:50:35;32.80;86.50
52209;DHT22;38507;53.132;6.394;2023-07-08T11:53:07;32.70;85.80
52209;DHT22;38507;53.132;6.394;2023-07-08T11:55:42;32.80;86.90
52209;DHT22;38507;53.132;6.394;2023-07-08T11:58:23;32.90;87.00
52209;DHT22;38507;53.132;6.394;2023-07-08T12:01:18;32.80;86.70
52209;DHT22;38507;53.132;6.394;2023-07-08T12:03:54;32.90;86.00
52209;DHT22;38507;53.132;6.394;2023-07-08T12:06:46;33.00;84.10
52209;DHT22;38507;53.132;6.394;2023-07-08T12:09:16;33.20;85.00
52209;DHT22;38507;53.132;6.394;2023-07-08T12:11:48;33.10;86.30
52209;DHT22;38507;53.132;6.394;2023-07-08T12:14:17;33.30;86.20
52209;DHT22;38507;53.132;6.394;2023-07-08T12:16:43;33.40;85.70
52209;DHT22;38507;53.132;6.394;2023-07-08T12:19:13;33.50;86.20
52209;DHT22;38507;53.132;6.394;2023-07-08T12:21:41;33.50;85.20
52209;DHT22;38507;53.132;6.394;2023-07-08T12:24:09;33.60;84.90
52209;DHT22;38507;53.132;6.394;2023-07-08T12:26:36;33.50;85.20
52209;DHT22;38507;53.132;6.394;2023-07-08T12:29:02;33.60;85.00
52209;DHT22;38507;53.132;6.394;2023-07-08T12:31:28;33.50;84.50
52209;DHT22;38507;53.132;6.394;2023-07-08T12:33:54;33.60;84.30
52209;DHT22;38507;53.132;6.394;2023-07-08T12:36:23;33.70;84.50
52209;DHT22;38507;53.132;6.394;2023-07-08T12:38:56;33.70;83.30
52209;DHT22;38507;53.132;6.394;2023-07-08T12:41:25;33.80;83.80
52209;DHT22;38507;53.132;6.394;2023-07-08T12:43:53;33.80;83.10
52209;DHT22;38507;53.132;6.394;2023-07-08T12:46:20;33.90;83.50
52209;DHT22;38507;53.132;6.394;2023-07-08T12:48:46;34.10;83.60
52209;DHT22;38507;53.132;6.394;2023-07-08T12:51:15;34.10;83.90
52209;DHT22;38507;53.132;6.394;2023-07-08T12:53:42;34.10;83.00
52209;DHT22;38507;53.132;6.394;2023-07-08T12:56:08;34.30;83.20
52209;DHT22;38507;53.132;6.394;2023-07-08T12:58:38;34.30;82.80
52209;DHT22;38507;53.132;6.394;2023-07-08T13:01:06;34.30;82.40
52209;DHT22;38507;53.132;6.394;2023-07-08T13:03:37;34.30;82.80
52209;DHT22;38507;53.132;6.394;2023-07-08T13:06:06;34.30;81.90
52209;DHT22;38507;53.132;6.394;2023-07-08T13:08:38;34.20;79.60
52209;DHT22;38507;53.132;6.394;2023-07-08T13:11:05;34.30;81.50
52209;DHT22;38507;53.132;6.394;2023-07-08T13:13:34;34.40;82.30
52209;DHT22;38507;53.132;6.394;2023-07-08T13:16:01;34.40;81.10
52209;DHT22;38507;53.132;6.394;2023-07-08T13:18:37;34.50;81.70
52209;DHT22;38507;53.132;6.394;2023-07-08T13:21:06;34.50;80.70
52209;DHT22;38507;53.132;6.394;2023-07-08T13:23:34;34.60;81.60
52209;DHT22;38507;53.132;6.394;2023-07-08T13:26:00;34.70;81.20
52209;DHT22;38507;53.132;6.394;2023-07-08T13:28:27;34.80;81.50
52209;DHT22;38507;53.132;6.394;2023-07-08T13:30:55;34.90;81.20
52209;DHT22;38507;53.132;6.394;2023-07-08T13:33:21;35.00;81.10
52209;DHT22;38507;53.132;6.394;2023-07-08T13:35:48;35.20;80.30
52209;DHT22;38507;53.132;6.394;2023-07-08T13:38:17;35.10;78.70
52209;DHT22;38507;53.132;6.394;2023-07-08T13:40:53;35.00;78.90
52209;DHT22;38507;53.132;6.394;2023-07-08T13:43:44;35.20;77.90
52209;DHT22;38507;53.132;6.394;2023-07-08T13:46:29;35.10;77.30
52209;DHT22;38507;53.132;6.394;2023-07-08T13:48:55;35.30;77.10
52209;DHT22;38507;53.132;6.394;2023-07-08T13:51:23;35.40;78.60
52209;DHT22;38507;53.132;6.394;2023-07-08T13:53:57;35.40;77.80
52209;DHT22;38507;53.132;6.394;2023-07-08T13:56:30;35.50;78.20
52209;DHT22;38507;53.132;6.394;2023-07-08T13:59:09;35.60;77.90
52209;DHT22;38507;53.132;6.394;2023-07-08T14:01:38;35.70;76.60
52209;DHT22;38507;53.132;6.394;2023-07-08T14:04:05;35.70;77.00
52209;DHT22;38507;53.132;6.394;2023-07-08T14:06:34;35.70;76.90
52209;DHT22;38507;53.132;6.394;2023-07-08T14:09:27;35.70;75.50
52209;DHT22;38507;53.132;6.394;2023-07-08T14:11:53;35.60;75.00
52209;DHT22;38507;53.132;6.394;2023-07-08T14:14:19;35.80;76.10
52209;DHT22;38507;53.132;6.394;2023-07-08T14:16:51;35.80;76.10
52209;DHT22;38507;53.132;6.394;2023-07-08T14:19:35;35.90;75.30
52209;DHT22;38507;53.132;6.394;2023-07-08T14:22:01;36.10;74.00
52209;DHT22;38507;53.132;6.394;2023-07-08T14:24:27;36.10;73.80
52209;DHT22;38507;53.132;6.394;2023-07-08T14:26:53;36.00;75.00
52209;DHT22;38507;53.132;6.394;2023-07-08T14:29:19;36.00;75.10
52209;DHT22;38507;53.132;6.394;2023-07-08T14:31:45;36.00;73.60
52209;DHT22;38507;53.132;6.394;2023-07-08T14:34:27;36.00;72.40
52209;DHT22;38507;53.132;6.394;2023-07-08T14:36:53;36.10;73.30
52209;DHT22;38507;53.132;6.394;2023-07-08T14:39:19;36.10;73.90
52209;DHT22;38507;53.132;6.394;2023-07-08T14:41:47;36.10;73.30
52209;DHT22;38507;53.132;6.394;2023-07-08T14:46:46;36.20;73.00
52209;DHT22;38507;53.132;6.394;2023-07-08T14:49:16;36.30;73.80
52209;DHT22;38507;53.132;6.394;2023-07-08T14:51:42;36.30;72.90
52209;DHT22;38507;53.132;6.394;2023-07-08T14:54:07;36.40;71.90
52209;DHT22;38507;53.132;6.394;2023-07-08T14:56:33;36.30;72.70
52209;DHT22;38507;53.132;6.394;2023-07-08T14:58:59;36.40;72.60
52209;DHT22;38507;53.132;6.394;2023-07-08T15:01:25;36.40;71.90
52209;DHT22;38507;53.132;6.394;2023-07-08T15:03:55;36.30;72.00
52209;DHT22;38507;53.132;6.394;2023-07-08T15:06:21;36.30;71.60
52209;DHT22;38507;53.132;6.394;2023-07-08T15:08:47;36.40;71.50
52209;DHT22;38507;53.132;6.394;2023-07-08T15:11:14;36.30;71.00
52209;DHT22;38507;53.132;6.394;2023-07-08T15:13:40;36.30;70.60
52209;DHT22;38507;53.132;6.394;2023-07-08T15:16:12;36.40;70.70
52209;DHT22;38507;53.132;6.394;2023-07-08T15:18:39;36.40;70.50
52209;DHT22;38507;53.132;6.394;2023-07-08T15:21:11;36.40;70.80
52209;DHT22;38507;53.132;6.394;2023-07-08T15:23:37;36.50;70.00
52209;DHT22;38507;53.132;6.394;2023-07-08T15:26:03;36.40;70.50
52209;DHT22;38507;53.132;6.394;2023-07-08T15:28:49;36.50;70.80
52209;DHT22;38507;53.132;6.394;2023-07-08T15:31:21;36.50;70.90
52209;DHT22;38507;53.132;6.394;2023-07-08T15:33:53;36.50;70.00
52209;DHT22;38507;53.132;6.394;2023-07-08T15:36:19;36.50;70.20
52209;DHT22;38507;53.132;6.394;2023-07-08T15:38:45;36.40;70.20
52209;DHT22;38507;53.132;6.394;2023-07-08T15:41:23;36.40;69.80
52209;DHT22;38507;53.132;6.394;2023-07-08T15:43:49;36.40;69.80
52209;DHT22;38507;53.132;6.394;2023-07-08T15:46:17;36.40;69.90
52209;DHT22;38507;53.132;6.394;2023-07-08T15:48:43;36.40;69.60
52209;DHT22;38507;53.132;6.394;2023-07-08T15:51:14;36.40;70.50
52209;DHT22;38507;53.132;6.394;2023-07-08T15:53:40;36.50;70.00
52209;DHT22;38507;53.132;6.394;2023-07-08T15:56:12;36.50;69.80
52209;DHT22;38507;53.132;6.394;2023-07-08T15:58:38;36.40;69.30
52209;DHT22;38507;53.132;6.394;2023-07-08T16:01:05;36.50;70.00
52209;DHT22;38507;53.132;6.394;2023-07-08T16:03:35;36.60;70.10
52209;DHT22;38507;53.132;6.394;2023-07-08T16:06:01;36.50;69.60
52209;DHT22;38507;53.132;6.394;2023-07-08T16:08:27;36.60;70.00
52209;DHT22;38507;53.132;6.394;2023-07-08T16:11:03;36.70;68.80
52209;DHT22;38507;53.132;6.394;2023-07-08T16:13:35;36.60;69.10
52209;DHT22;38507;53.132;6.394;2023-07-08T16:16:03;36.50;67.70
52209;DHT22;38507;53.132;6.394;2023-07-08T16:18:29;36.50;68.50
52209;DHT22;38507;53.132;6.394;2023-07-08T16:20:55;36.60;68.70
52209;DHT22;38507;53.132;6.394;2023-07-08T16:23:21;36.60;69.10
52209;DHT22;38507;53.132;6.394;2023-07-08T16:25:49;36.70;69.50
52209;DHT22;38507;53.132;6.394;2023-07-08T16:31:21;36.60;67.40
52209;DHT22;38507;53.132;6.394;2023-07-08T16:33:48;36.50;67.50
52209;DHT22;38507;53.132;6.394;2023-07-08T16:36:20;36.40;68.30